createdAt,value
2022-08-29T00:00:50.649Z,99.90
2022-08-29T00:03:18.437Z,99.90
2022-08-29T00:05:50.074Z,99.90
2022-08-29T00:08:17.230Z,99.90
2022-08-29T00:10:44.054Z,99.90
2022-08-29T00:13:12.765Z,99.90
2022-08-29T00:15:42.240Z,99.90
2022-08-29T00:18:14.072Z,99.90
2022-08-29T00:20:42.143Z,99.90
2022-08-29T00:23:10.091Z,99.90
2022-08-29T00:25:37.212Z,99.90
2022-08-29T00:28:04.865Z,99.90
2022-08-29T00:30:33.084Z,99.90
2022-08-29T00:32:59.828Z,99.90
2022-08-29T00:35:30.409Z,99.90
2022-08-29T00:37:58.741Z,99.90
2022-08-29T00:40:32.987Z,99.90
2022-08-29T00:43:00.348Z,99.90
2022-08-29T00:45:27.602Z,99.90
2022-08-29T00:47:58.897Z,99.90
2022-08-29T00:50:34.254Z,99.90
2022-08-29T00:53:02.422Z,99.90
2022-08-29T00:55:32.619Z,99.90
2022-08-29T00:58:04.716Z,99.90
2022-08-29T01:00:32.361Z,99.90
2022-08-29T01:02:59.229Z,99.90
2022-08-29T01:05:26.899Z,99.90
2022-08-29T01:07:53.723Z,99.90
2022-08-29T01:10:40.817Z,99.90
2022-08-29T01:13:10.005Z,99.90
2022-08-29T01:15:39.767Z,99.90
2022-08-29T01:18:08.690Z,99.90
2022-08-29T01:20:54.017Z,99.90
2022-08-29T01:23:41.044Z,99.90
2022-08-29T01:26:10.102Z,99.90
2022-08-29T01:28:41.657Z,99.90
2022-08-29T01:31:31.783Z,99.90
2022-08-29T01:34:04.648Z,99.90
2022-08-29T01:36:55.452Z,99.90
2022-08-29T01:39:26.600Z,99.90
2022-08-29T01:41:53.653Z,99.90
2022-08-29T01:44:22.676Z,99.90
2022-08-29T01:46:52.007Z,99.90
2022-08-29T01:49:20.609Z,99.90
2022-08-29T01:51:47.507Z,99.90
2022-08-29T01:54:15.785Z,99.90
2022-08-29T01:56:45.693Z,99.90
2022-08-29T01:59:20.805Z,99.90
2022-08-29T02:02:00.675Z,99.90
2022-08-29T02:04:27.535Z,99.90
2022-08-29T02:06:56.141Z,99.90
2022-08-29T02:09:24.290Z,99.90
2022-08-29T02:11:54.666Z,99.90
2022-08-29T02:14:22.207Z,99.90
2022-08-29T02:16:49.566Z,99.90
2022-08-29T02:19:16.714Z,99.90
2022-08-29T02:21:44.386Z,99.90
2022-08-29T02:24:25.047Z,99.90
2022-08-29T02:26:54.269Z,99.90
2022-08-29T02:29:21.147Z,99.90
2022-08-29T02:31:48.451Z,99.90
2022-08-29T02:34:16.516Z,99.90
2022-08-29T02:36:44.519Z,99.90
2022-08-29T02:39:11.741Z,99.90
2022-08-29T02:41:38.792Z,99.90
2022-08-29T02:44:05.873Z,99.90
2022-08-29T02:46:33.185Z,99.90
2022-08-29T02:49:00.537Z,99.90
2022-08-29T02:51:31.244Z,99.90
2022-08-29T02:53:59.655Z,99.90
2022-08-29T02:56:27.641Z,99.90
2022-08-29T02:58:54.440Z,99.90
2022-08-29T03:01:22.651Z,99.90
2022-08-29T03:03:50.639Z,99.90
2022-08-29T03:06:19.424Z,99.90
2022-08-29T03:08:46.672Z,99.90
2022-08-29T03:11:14.087Z,99.90
2022-08-29T03:13:44.096Z,99.90
2022-08-29T03:16:12.308Z,99.90
2022-08-29T03:18:39.453Z,99.90
2022-08-29T03:21:13.651Z,99.90
2022-08-29T03:23:40.420Z,99.90
2022-08-29T03:26:07.831Z,99.90
2022-08-29T03:28:34.651Z,99.90
2022-08-29T03:31:01.483Z,99.90
2022-08-29T03:33:28.360Z,99.90
2022-08-29T03:35:55.197Z,99.90
2022-08-29T03:38:22.758Z,99.90
2022-08-29T03:40:49.590Z,99.90
2022-08-29T03:43:16.346Z,99.90
2022-08-29T03:45:43.196Z,99.90
2022-08-29T03:48:10.051Z,99.90
2022-08-29T03:50:36.833Z,99.90
2022-08-29T03:53:03.790Z,99.90
2022-08-29T03:55:30.556Z,99.90
2022-08-29T03:57:57.325Z,99.90
2022-08-29T04:00:24.353Z,99.90
2022-08-29T04:02:53.750Z,99.90
2022-08-29T04:05:20.836Z,99.90
2022-08-29T04:07:54.891Z,99.90
2022-08-29T04:10:25.302Z,99.90
2022-08-29T04:12:54.689Z,99.90
2022-08-29T04:15:23.489Z,99.90
2022-08-29T04:17:54.132Z,99.90
2022-08-29T04:20:25.307Z,99.90
2022-08-29T04:22:54.323Z,99.90
2022-08-29T04:25:22.368Z,99.90
2022-08-29T04:27:49.636Z,99.90
2022-08-29T04:30:19.346Z,99.90
2022-08-29T04:32:46.482Z,99.90
2022-08-29T04:35:15.659Z,99.90
2022-08-29T04:37:44.054Z,99.90
2022-08-29T04:40:15.421Z,99.90
2022-08-29T04:42:42.593Z,99.90
2022-08-29T04:45:12.372Z,99.90
2022-08-29T04:47:39.852Z,99.90
2022-08-29T04:50:08.793Z,99.90
2022-08-29T04:52:37.005Z,99.90
2022-08-29T04:55:05.339Z,99.90
2022-08-29T04:57:32.064Z,99.90
2022-08-29T04:59:59.955Z,99.90
2022-08-29T05:02:28.379Z,99.90
2022-08-29T05:04:56.929Z,99.90
2022-08-29T05:07:25.549Z,99.90
2022-08-29T05:10:01.267Z,99.90
2022-08-29T05:12:30.419Z,99.90
2022-08-29T05:14:57.673Z,99.90
2022-08-29T05:17:25.523Z,99.90
2022-08-29T05:19:52.986Z,99.90
2022-08-29T05:22:21.104Z,99.90
2022-08-29T05:24:48.910Z,99.90
2022-08-29T05:27:54.909Z,99.90
2022-08-29T05:30:35.100Z,99.90
2022-08-29T05:33:13.000Z,99.90
2022-08-29T05:36:09.459Z,99.90
2022-08-29T05:38:36.371Z,99.90
2022-08-29T05:48:53.399Z,99.90
2022-08-29T05:51:47.630Z,99.90
2022-08-29T05:54:55.632Z,99.90
2022-08-29T05:57:58.451Z,99.90
2022-08-29T06:00:25.668Z,99.90
2022-08-29T06:07:25.545Z,99.90
2022-08-29T06:29:11.040Z,99.90
2022-08-29T06:31:39.053Z,99.90
2022-08-29T06:42:04.252Z,99.90
2022-08-29T06:45:56.885Z,99.90
2022-08-29T06:49:07.139Z,99.90
2022-08-29T06:52:24.164Z,99.90
2022-08-29T06:55:42.121Z,99.90
2022-08-29T06:59:11.632Z,99.90
2022-08-29T07:02:32.398Z,99.90
2022-08-29T07:05:25.154Z,99.90
2022-08-29T07:14:57.836Z,99.90
2022-08-29T07:18:30.766Z,99.90
2022-08-29T07:21:20.090Z,99.90
2022-08-29T07:23:55.581Z,99.90
2022-08-29T07:26:38.978Z,99.90
2022-08-29T07:30:03.003Z,99.90
2022-08-29T07:36:57.738Z,99.90
2022-08-29T07:40:02.178Z,99.90
2022-08-29T07:42:37.623Z,99.90
2022-08-29T07:45:20.549Z,99.90
2022-08-29T07:52:23.380Z,99.90
2022-08-29T07:54:51.582Z,99.90
2022-08-29T07:58:31.524Z,99.90
2022-08-29T08:08:54.747Z,99.90
2022-08-29T08:11:32.186Z,99.90
2022-08-29T08:14:01.723Z,99.90
2022-08-29T08:16:35.621Z,99.90
2022-08-29T08:19:04.672Z,99.90
2022-08-29T08:22:34.465Z,99.90
2022-08-29T08:28:19.093Z,99.90
2022-08-29T08:30:46.061Z,99.90
2022-08-29T08:33:22.218Z,99.90
2022-08-29T08:36:07.042Z,99.90
2022-08-29T08:39:05.463Z,99.90
2022-08-29T08:41:51.144Z,99.90
2022-08-29T08:48:49.271Z,99.90
2022-08-29T08:57:14.945Z,99.90
2022-08-29T09:14:38.129Z,99.90
2022-08-29T09:17:46.054Z,99.90
2022-08-29T09:20:27.283Z,99.90
2022-08-29T09:26:49.921Z,99.90
2022-08-29T09:29:45.401Z,99.90
2022-08-29T09:41:47.400Z,99.90
2022-08-29T09:44:51.304Z,99.90
2022-08-29T09:47:58.893Z,99.90
2022-08-29T09:50:37.258Z,99.90
2022-08-29T09:53:24.616Z,99.90
2022-08-29T09:56:32.532Z,99.90
2022-08-29T09:59:14.770Z,99.90
2022-08-29T10:01:56.774Z,99.90
2022-08-29T10:04:45.293Z,99.90
2022-08-29T10:12:44.358Z,99.90
2022-08-29T10:18:31.843Z,99.90
2022-08-29T10:21:04.570Z,99.90
2022-08-29T10:23:47.472Z,99.90
2022-08-29T10:34:38.207Z,99.10
2022-08-29T10:46:03.677Z,98.50
2022-08-29T10:55:42.328Z,97.00
2022-08-29T10:59:25.075Z,96.50
2022-08-29T11:02:43.598Z,96.80
2022-08-29T11:05:29.395Z,95.70
2022-08-29T11:09:07.460Z,96.60
2022-08-29T11:12:25.431Z,96.70
2022-08-29T11:15:08.097Z,95.50
2022-08-29T11:18:06.949Z,96.20
2022-08-29T11:25:15.675Z,96.60
2022-08-29T11:28:20.369Z,96.00
2022-08-29T11:31:04.717Z,95.90
2022-08-29T11:34:08.958Z,96.10
2022-08-29T11:36:51.160Z,96.10
2022-08-29T11:39:29.867Z,95.50
2022-08-29T11:42:12.327Z,95.20
2022-08-29T11:44:55.096Z,96.30
2022-08-29T11:47:45.872Z,96.20
2022-08-29T11:50:27.482Z,96.20
2022-08-29T11:53:22.561Z,96.10
2022-08-29T11:56:19.447Z,95.70
2022-08-29T11:58:48.612Z,95.20
2022-08-29T12:01:42.155Z,95.20
2022-08-29T12:16:01.671Z,95.90
2022-08-29T12:19:26.636Z,95.50
2022-08-29T12:27:20.289Z,95.80
2022-08-29T12:30:56.872Z,95.00
2022-08-29T12:38:14.408Z,94.40
2022-08-29T12:45:39.364Z,94.70
2022-08-29T12:57:04.236Z,93.90
2022-08-29T13:14:51.759Z,93.90
2022-08-29T13:17:34.794Z,93.40
2022-08-29T13:27:41.364Z,92.70
2022-08-29T13:30:33.310Z,93.40
2022-08-29T13:33:03.923Z,93.50
2022-08-29T13:36:40.701Z,92.70
2022-08-29T13:39:25.383Z,93.20
2022-08-29T13:42:41.351Z,91.80
2022-08-29T13:45:29.605Z,91.50
2022-08-29T13:48:45.214Z,92.00
2022-08-29T13:54:44.837Z,92.30
2022-08-29T13:57:31.605Z,91.90
2022-08-29T14:00:32.106Z,91.50
2022-08-29T14:03:09.465Z,92.10
2022-08-29T14:06:38.364Z,92.20
2022-08-29T14:09:17.975Z,92.20
2022-08-29T14:11:50.865Z,92.00
2022-08-29T14:14:18.874Z,91.60
2022-08-29T14:16:53.804Z,91.60
2022-08-29T14:19:31.513Z,91.80
2022-08-29T14:22:02.141Z,91.70
2022-08-29T14:25:03.145Z,91.80
2022-08-29T14:27:58.765Z,91.80
2022-08-29T14:30:43.134Z,91.10
2022-08-29T14:33:40.612Z,90.90
2022-08-29T14:36:08.360Z,90.90
2022-08-29T14:38:44.912Z,91.20
2022-08-29T14:41:26.858Z,90.80
2022-08-29T14:44:25.764Z,90.30
2022-08-29T14:46:52.660Z,90.80
2022-08-29T14:49:27.824Z,90.80
2022-08-29T14:54:52.213Z,90.40
2022-08-29T14:57:28.454Z,90.10
2022-08-29T15:01:09.632Z,90.40
2022-08-29T15:03:36.758Z,90.50
2022-08-29T15:10:42.665Z,87.80
2022-08-29T15:13:17.115Z,87.20
2022-08-29T15:16:04.267Z,86.70
2022-08-29T15:22:44.799Z,85.60
2022-08-29T15:25:26.117Z,86.20
2022-08-29T15:29:02.053Z,85.30
2022-08-29T15:31:31.673Z,85.60
2022-08-29T15:34:11.340Z,82.80
2022-08-29T15:36:48.680Z,81.80
2022-08-29T15:39:32.594Z,83.60
2022-08-29T15:42:11.097Z,83.20
2022-08-29T15:44:53.558Z,83.20
2022-08-29T15:48:14.391Z,82.90
2022-08-29T15:51:23.364Z,84.20
2022-08-29T15:54:32.007Z,83.60
2022-08-29T15:57:22.231Z,83.70
2022-08-29T16:00:37.067Z,83.90
2022-08-29T16:03:38.329Z,85.00
2022-08-29T16:06:17.177Z,84.00
2022-08-29T16:08:46.131Z,84.20
2022-08-29T16:11:38.701Z,84.70
2022-08-29T16:17:04.555Z,85.40
2022-08-29T16:19:42.390Z,85.80
2022-08-29T16:22:10.389Z,84.90
2022-08-29T16:24:42.639Z,84.40
2022-08-29T16:27:09.807Z,84.30
2022-08-29T16:29:44.501Z,84.10
2022-08-29T16:33:31.742Z,83.20
2022-08-29T16:36:10.955Z,84.00
2022-08-29T16:42:12.559Z,83.20
2022-08-29T16:44:48.750Z,82.80
2022-08-29T16:47:56.735Z,83.50
2022-08-29T16:50:34.398Z,82.80
2022-08-29T16:57:17.674Z,82.50
2022-08-29T17:04:25.806Z,83.90
2022-08-29T17:07:08.722Z,84.30
2022-08-29T17:09:44.783Z,84.50
2022-08-29T17:12:21.687Z,84.80
2022-08-29T17:14:55.065Z,85.00
2022-08-29T17:17:44.181Z,84.90
2022-08-29T17:20:11.868Z,85.60
2022-08-29T17:22:46.009Z,85.70
2022-08-29T17:26:08.503Z,85.60
2022-08-29T17:29:35.667Z,86.10
2022-08-29T17:32:09.508Z,86.10
2022-08-29T17:34:38.754Z,86.50
2022-08-29T17:37:22.431Z,86.50
2022-08-29T17:40:36.989Z,86.70
2022-08-29T17:44:19.992Z,87.20
2022-08-29T17:50:00.086Z,88.10
2022-08-29T17:53:21.937Z,88.70
2022-08-29T17:58:39.924Z,89.20
2022-08-29T18:01:16.013Z,89.80
2022-08-29T18:03:52.671Z,90.00
2022-08-29T18:06:46.706Z,90.10
2022-08-29T18:09:30.369Z,90.30
2022-08-29T18:12:11.537Z,90.60
2022-08-29T18:15:11.593Z,90.80
2022-08-29T18:17:59.575Z,90.90
2022-08-29T18:20:31.548Z,91.40
2022-08-29T18:23:53.215Z,91.50
2022-08-29T18:26:22.839Z,91.70
2022-08-29T18:29:04.257Z,91.90
2022-08-29T18:32:14.975Z,92.00
2022-08-29T18:34:42.010Z,92.30
2022-08-29T18:40:23.828Z,92.50
2022-08-29T18:44:08.652Z,92.30
2022-08-29T18:47:20.917Z,92.60
2022-08-29T18:50:09.018Z,92.50
2022-08-29T18:52:45.968Z,92.70
2022-08-29T18:55:15.743Z,92.70
2022-08-29T18:57:52.919Z,92.60
2022-08-29T19:00:26.902Z,92.50
2022-08-29T19:03:32.387Z,92.30
2022-08-29T19:06:11.640Z,92.30
2022-08-29T19:08:49.705Z,92.10
2022-08-29T19:12:21.714Z,92.30
2022-08-29T19:14:52.161Z,92.30
2022-08-29T19:17:19.186Z,92.40
2022-08-29T19:20:25.978Z,92.50
2022-08-29T19:23:24.211Z,92.50
2022-08-29T19:29:40.305Z,92.60
2022-08-29T19:32:08.237Z,92.80
2022-08-29T19:34:47.740Z,92.90
2022-08-29T19:37:43.268Z,92.90
2022-08-29T19:40:42.549Z,93.10
2022-08-29T19:43:28.447Z,93.10
2022-08-29T19:46:49.843Z,93.30
2022-08-29T19:50:09.960Z,93.50
2022-08-29T19:57:14.602Z,93.90
2022-08-29T19:59:54.253Z,93.90
2022-08-29T20:03:35.834Z,94.10
2022-08-29T20:06:15.161Z,94.30
2022-08-29T20:12:55.169Z,94.60
2022-08-29T20:15:26.763Z,95.10
2022-08-29T20:18:02.598Z,95.30
2022-08-29T20:21:26.361Z,95.20
2022-08-29T20:24:42.158Z,95.30
2022-08-29T20:27:09.244Z,95.80
2022-08-29T20:37:27.416Z,96.30
2022-08-29T20:40:35.160Z,96.50
2022-08-29T20:43:08.494Z,96.50
2022-08-29T20:45:38.643Z,96.50
2022-08-29T20:50:36.063Z,96.50
2022-08-29T20:52:40.418Z,96.80
2022-08-29T20:55:36.573Z,96.80
2022-08-29T20:58:38.965Z,96.80
2022-08-29T21:01:44.316Z,97.00
2022-08-29T21:08:22.537Z,97.40
2022-08-29T21:11:20.808Z,97.60
2022-08-29T21:13:53.304Z,97.60
2022-08-29T21:16:30.107Z,97.70
2022-08-29T21:18:57.116Z,97.90
2022-08-29T21:21:25.021Z,98.00
2022-08-29T21:23:52.080Z,98.00
2022-08-29T21:26:18.999Z,98.10
2022-08-29T21:28:47.251Z,98.00
2022-08-29T21:31:15.460Z,98.10
2022-08-29T21:33:44.958Z,98.20
2022-08-29T21:36:14.641Z,98.30
2022-08-29T21:38:41.517Z,98.30
2022-08-29T21:41:10.132Z,98.30
2022-08-29T21:43:37.411Z,98.30
2022-08-29T21:46:17.080Z,98.30
2022-08-29T21:48:44.140Z,98.40
2022-08-29T21:51:12.923Z,98.30
2022-08-29T21:53:41.645Z,98.20
2022-08-29T21:56:08.679Z,98.30
2022-08-29T21:58:35.507Z,98.20
2022-08-29T22:01:02.310Z,98.20
2022-08-29T22:03:29.100Z,98.10
2022-08-29T22:05:56.170Z,98.20
2022-08-29T22:08:22.929Z,98.00
2022-08-29T22:10:50.014Z,97.90
2022-08-29T22:13:17.263Z,97.80
2022-08-29T22:16:03.079Z,97.50
2022-08-29T22:18:29.894Z,97.20
2022-08-29T22:21:00.372Z,96.90
2022-08-29T22:23:27.238Z,96.80
2022-08-29T22:25:54.107Z,96.50
2022-08-29T22:28:21.321Z,96.50
2022-08-29T22:30:48.796Z,96.60
2022-08-29T22:33:16.549Z,96.70
2022-08-29T22:35:43.728Z,96.80
2022-08-29T22:38:10.557Z,96.90
2022-08-29T22:40:37.455Z,97.00
2022-08-29T22:43:04.822Z,96.90
2022-08-29T22:45:32.310Z,97.00
2022-08-29T22:47:59.137Z,97.30
2022-08-29T22:50:26.105Z,97.40
2022-08-29T22:52:57.922Z,97.50
2022-08-29T22:57:51.327Z,97.70
2022-08-29T23:00:20.705Z,97.70
2022-08-29T23:02:48.412Z,97.80
2022-08-29T23:05:18.006Z,97.90
2022-08-29T23:07:45.384Z,97.90
2022-08-29T23:10:14.167Z,98.10
2022-08-29T23:12:41.145Z,98.10
2022-08-29T23:15:11.663Z,98.10
2022-08-29T23:17:38.399Z,98.10
2022-08-29T23:20:07.032Z,98.20
2022-08-29T23:22:33.826Z,98.20
2022-08-29T23:25:00.770Z,98.40
2022-08-29T23:27:31.934Z,98.50
2022-08-29T23:30:00.617Z,98.60
2022-08-29T23:32:28.091Z,98.80
2022-08-29T23:34:55.131Z,98.80
2022-08-29T23:37:21.907Z,98.90
2022-08-29T23:39:48.659Z,99.00
2022-08-29T23:42:15.432Z,99.00
2022-08-29T23:44:42.188Z,99.00
2022-08-29T23:47:09.234Z,99.00
2022-08-29T23:49:36.071Z,99.10
2022-08-29T23:52:04.420Z,99.10
2022-08-29T23:54:31.529Z,99.20
2022-08-29T23:56:58.628Z,99.30
2022-08-29T23:59:44.289Z,99.50
